Terminal Aerodrome Forecast
Issued by NWS Charleston, SC

Home | Current Version | Previous Version | Text Only | Print | Product List | Glossary On
Versions: 1 2 3 4 5 6 7 8 9 10 11 12 13 14 15 16 17 18 19 20 21 22 23 24 25 26 27 28 29 30 31 32 33 34 35 36 37 38 39 40 41 42 43 44 45 46 47 48 49 50
000
FTUS42 KCHS 261700
TAFSAV
TAF
KSAV 261721Z 2618/2718 29011G16KT P6SM BKN020
     FM261930 29011G16KT P6SM SCT020 BKN035
     FM262200 26006KT P6SM SKC
     FM270900 24007KT P6SM FEW050 WS010/25035KT
     FM271330 28015G25KT P6SM SKC=

USA.gov is the U.S. government's official web portal to all federal, state and local government web resources and services.